Waterbury, Nebraska
Current Conditions -  °F | °C
As of 1:35 AM on Sunday 23 Nov 2014 (Local Time) from KSUX Reporting Station
Overcast Overcast  
Wind Chill: 54°   Ceiling: 2000
Heat Index: 54°   Visibility: 10mi
Dew Point: 50°   Wind: 12mph
Humidity: 86%   Direction: 170°S
Pressure: 29.48"   Gusts: NA
Location:  42.46°N, 96.73°W
Report Text: KSUX 230735Z 17010KT 10SM SCT011 OVC020 12/10 A2948 RMK AO2 T01220100
Loading
Personal Weather Stations






























Interactive Weather Map New forecast layout! Learn more

10-Day Weather Forecast

Advertisements
Track Severe Weather on mobile